sensor_id;sensor_type;location;lat;lon;timestamp;temperature;humidity
18721;DHT22;9489;50.948;3.114;2023-11-19T00:00:29;14.00;99.90
18721;DHT22;9489;50.948;3.114;2023-11-19T00:02:55;14.00;99.90
18721;DHT22;9489;50.948;3.114;2023-11-19T00:05:20;14.00;99.90
18721;DHT22;9489;50.948;3.114;2023-11-19T00:07:46;13.90;99.90
18721;DHT22;9489;50.948;3.114;2023-11-19T00:10:14;13.90;99.90
18721;DHT22;9489;50.948;3.114;2023-11-19T00:12:45;13.90;99.90
18721;DHT22;9489;50.948;3.114;2023-11-19T00:15:15;13.80;99.90
18721;DHT22;9489;50.948;3.114;2023-11-19T00:17:41;13.80;99.90
18721;DHT22;9489;50.948;3.114;2023-11-19T00:20:15;13.80;99.90
18721;DHT22;9489;50.948;3.114;2023-11-19T00:22:42;13.80;99.90
18721;DHT22;9489;50.948;3.114;2023-11-19T00:25:09;13.80;99.90
18721;DHT22;9489;50.948;3.114;2023-11-19T00:27:37;13.80;99.90
18721;DHT22;9489;50.948;3.114;2023-11-19T00:30:05;13.80;99.90
18721;DHT22;9489;50.948;3.114;2023-11-19T00:32:34;13.80;99.90
18721;DHT22;9489;50.948;3.114;2023-11-19T00:35:00;13.80;99.90
18721;DHT22;9489;50.948;3.114;2023-11-19T00:37:26;13.80;99.90
18721;DHT22;9489;50.948;3.114;2023-11-19T00:39:52;13.90;99.90
18721;DHT22;9489;50.948;3.114;2023-11-19T00:42:18;13.80;99.90
18721;DHT22;9489;50.948;3.114;2023-11-19T00:44:43;13.80;99.90
18721;DHT22;9489;50.948;3.114;2023-11-19T00:47:09;13.80;99.90
18721;DHT22;9489;50.948;3.114;2023-11-19T00:49:34;13.70;99.90
18721;DHT22;9489;50.948;3.114;2023-11-19T00:52:00;13.70;99.90
18721;DHT22;9489;50.948;3.114;2023-11-19T00:54:27;13.70;99.90
18721;DHT22;9489;50.948;3.114;2023-11-19T00:56:53;13.60;99.90
18721;DHT22;9489;50.948;3.114;2023-11-19T00:59:19;13.60;99.90
18721;DHT22;9489;50.948;3.114;2023-11-19T01:01:45;13.60;99.90
18721;DHT22;9489;50.948;3.114;2023-11-19T01:04:10;13.60;99.90
18721;DHT22;9489;50.948;3.114;2023-11-19T01:06:36;13.50;99.90
18721;DHT22;9489;50.948;3.114;2023-11-19T01:09:02;13.50;99.90
18721;DHT22;9489;50.948;3.114;2023-11-19T01:11:28;13.50;99.90
18721;DHT22;9489;50.948;3.114;2023-11-19T01:13:53;13.50;99.90
18721;DHT22;9489;50.948;3.114;2023-11-19T01:16:19;13.40;99.90
18721;DHT22;9489;50.948;3.114;2023-11-19T01:18:49;13.40;99.90
18721;DHT22;9489;50.948;3.114;2023-11-19T01:21:15;13.40;99.90
18721;DHT22;9489;50.948;3.114;2023-11-19T01:23:42;13.30;99.90
18721;DHT22;9489;50.948;3.114;2023-11-19T01:26:14;13.30;99.90
18721;DHT22;9489;50.948;3.114;2023-11-19T01:28:40;13.20;99.90
18721;DHT22;9489;50.948;3.114;2023-11-19T01:31:08;13.20;99.90
18721;DHT22;9489;50.948;3.114;2023-11-19T01:33:36;13.10;99.90
18721;DHT22;9489;50.948;3.114;2023-11-19T01:36:01;13.10;99.90
18721;DHT22;9489;50.948;3.114;2023-11-19T01:38:27;13.10;99.90
18721;DHT22;9489;50.948;3.114;2023-11-19T01:40:56;13.00;99.90
18721;DHT22;9489;50.948;3.114;2023-11-19T01:43:35;13.10;99.90
18721;DHT22;9489;50.948;3.114;2023-11-19T01:46:02;13.10;99.90
18721;DHT22;9489;50.948;3.114;2023-11-19T01:48:35;13.10;99.90
18721;DHT22;9489;50.948;3.114;2023-11-19T01:51:03;13.10;99.90
18721;DHT22;9489;50.948;3.114;2023-11-19T01:53:30;13.20;99.90
18721;DHT22;9489;50.948;3.114;2023-11-19T01:55:56;13.20;99.90
18721;DHT22;9489;50.948;3.114;2023-11-19T01:58:23;13.10;99.90
18721;DHT22;9489;50.948;3.114;2023-11-19T02:00:49;13.10;99.90
18721;DHT22;9489;50.948;3.114;2023-11-19T02:03:16;13.10;99.90
18721;DHT22;9489;50.948;3.114;2023-11-19T02:05:42;13.10;99.90
18721;DHT22;9489;50.948;3.114;2023-11-19T02:08:08;13.10;99.90
18721;DHT22;9489;50.948;3.114;2023-11-19T02:10:34;13.10;99.90
18721;DHT22;9489;50.948;3.114;2023-11-19T02:13:01;13.10;99.90
18721;DHT22;9489;50.948;3.114;2023-11-19T02:15:28;13.00;99.90
18721;DHT22;9489;50.948;3.114;2023-11-19T02:17:53;13.00;99.90
18721;DHT22;9489;50.948;3.114;2023-11-19T02:20:19;13.00;99.90
18721;DHT22;9489;50.948;3.114;2023-11-19T02:22:46;13.00;99.90
18721;DHT22;9489;50.948;3.114;2023-11-19T02:25:19;12.90;99.90
18721;DHT22;9489;50.948;3.114;2023-11-19T02:27:59;13.00;99.90
18721;DHT22;9489;50.948;3.114;2023-11-19T02:30:26;13.00;99.90
18721;DHT22;9489;50.948;3.114;2023-11-19T02:32:59;13.00;99.90
18721;DHT22;9489;50.948;3.114;2023-11-19T02:35:27;13.10;99.90
18721;DHT22;9489;50.948;3.114;2023-11-19T02:37:54;13.10;99.90
18721;DHT22;9489;50.948;3.114;2023-11-19T02:40:20;13.10;99.90
18721;DHT22;9489;50.948;3.114;2023-11-19T02:42:49;13.00;99.90
18721;DHT22;9489;50.948;3.114;2023-11-19T02:45:15;13.00;99.90
18721;DHT22;9489;50.948;3.114;2023-11-19T02:47:41;13.00;99.90
18721;DHT22;9489;50.948;3.114;2023-11-19T02:50:12;12.90;99.90
18721;DHT22;9489;50.948;3.114;2023-11-19T02:52:42;12.90;99.90
18721;DHT22;9489;50.948;3.114;2023-11-19T02:55:08;12.80;99.90
18721;DHT22;9489;50.948;3.114;2023-11-19T02:57:41;12.80;99.90
18721;DHT22;9489;50.948;3.114;2023-11-19T03:00:20;12.80;99.90
18721;DHT22;9489;50.948;3.114;2023-11-19T03:02:49;12.80;99.90
18721;DHT22;9489;50.948;3.114;2023-11-19T03:05:25;12.80;99.90
18721;DHT22;9489;50.948;3.114;2023-11-19T03:07:51;12.80;99.90
18721;DHT22;9489;50.948;3.114;2023-11-19T03:10:17;12.70;99.90
18721;DHT22;9489;50.948;3.114;2023-11-19T03:12:44;12.80;99.90
18721;DHT22;9489;50.948;3.114;2023-11-19T03:15:11;12.70;99.90
18721;DHT22;9489;50.948;3.114;2023-11-19T03:17:40;12.70;99.90
18721;DHT22;9489;50.948;3.114;2023-11-19T03:20:08;12.70;99.90
18721;DHT22;9489;50.948;3.114;2023-11-19T03:22:41;12.70;99.90
18721;DHT22;9489;50.948;3.114;2023-11-19T03:25:10;12.70;99.90
18721;DHT22;9489;50.948;3.114;2023-11-19T03:27:36;12.60;99.90
18721;DHT22;9489;50.948;3.114;2023-11-19T03:30:03;12.60;99.90
18721;DHT22;9489;50.948;3.114;2023-11-19T03:32:31;12.50;99.90
18721;DHT22;9489;50.948;3.114;2023-11-19T03:34:58;12.50;99.90
18721;DHT22;9489;50.948;3.114;2023-11-19T03:37:25;12.40;99.90
18721;DHT22;9489;50.948;3.114;2023-11-19T03:39:51;12.40;99.90
18721;DHT22;9489;50.948;3.114;2023-11-19T03:42:19;12.40;99.90
18721;DHT22;9489;50.948;3.114;2023-11-19T03:44:46;12.40;99.90
18721;DHT22;9489;50.948;3.114;2023-11-19T03:47:11;12.40;99.90
18721;DHT22;9489;50.948;3.114;2023-11-19T03:49:37;12.40;99.90
18721;DHT22;9489;50.948;3.114;2023-11-19T03:52:03;12.40;99.90
18721;DHT22;9489;50.948;3.114;2023-11-19T03:54:28;12.40;99.90
18721;DHT22;9489;50.948;3.114;2023-11-19T03:56:54;12.50;99.90
18721;DHT22;9489;50.948;3.114;2023-11-19T03:59:20;12.50;99.90
18721;DHT22;9489;50.948;3.114;2023-11-19T04:01:46;12.50;99.90
18721;DHT22;9489;50.948;3.114;2023-11-19T04:04:11;12.50;99.90
18721;DHT22;9489;50.948;3.114;2023-11-19T04:06:37;12.50;99.90
18721;DHT22;9489;50.948;3.114;2023-11-19T04:09:03;12.50;99.90
18721;DHT22;9489;50.948;3.114;2023-11-19T04:11:29;12.50;99.90
18721;DHT22;9489;50.948;3.114;2023-11-19T04:13:54;12.50;99.90
18721;DHT22;9489;50.948;3.114;2023-11-19T04:16:26;12.50;99.90
18721;DHT22;9489;50.948;3.114;2023-11-19T04:18:53;12.40;99.90
18721;DHT22;9489;50.948;3.114;2023-11-19T04:21:19;12.40;99.90
18721;DHT22;9489;50.948;3.114;2023-11-19T04:23:44;12.40;99.90
18721;DHT22;9489;50.948;3.114;2023-11-19T04:26:10;12.30;99.90
18721;DHT22;9489;50.948;3.114;2023-11-19T04:28:36;12.30;99.90
18721;DHT22;9489;50.948;3.114;2023-11-19T04:31:01;12.30;99.90
18721;DHT22;9489;50.948;3.114;2023-11-19T04:33:28;12.30;99.90
18721;DHT22;9489;50.948;3.114;2023-11-19T04:35:54;12.20;99.90
18721;DHT22;9489;50.948;3.114;2023-11-19T04:38:20;12.20;99.90
18721;DHT22;9489;50.948;3.114;2023-11-19T04:40:45;12.20;99.90
18721;DHT22;9489;50.948;3.114;2023-11-19T04:43:11;12.10;99.90
18721;DHT22;9489;50.948;3.114;2023-11-19T04:45:36;12.10;99.90
18721;DHT22;9489;50.948;3.114;2023-11-19T04:48:02;12.10;99.90
18721;DHT22;9489;50.948;3.114;2023-11-19T04:50:28;12.10;99.90
18721;DHT22;9489;50.948;3.114;2023-11-19T04:52:53;12.20;99.90
18721;DHT22;9489;50.948;3.114;2023-11-19T04:55:21;12.20;99.90
18721;DHT22;9489;50.948;3.114;2023-11-19T04:57:46;12.20;99.90
18721;DHT22;9489;50.948;3.114;2023-11-19T05:00:13;12.20;99.90
18721;DHT22;9489;50.948;3.114;2023-11-19T05:02:39;12.20;99.90
18721;DHT22;9489;50.948;3.114;2023-11-19T05:05:05;12.10;99.90
18721;DHT22;9489;50.948;3.114;2023-11-19T05:07:31;12.10;99.90
18721;DHT22;9489;50.948;3.114;2023-11-19T05:09:56;12.10;99.90
18721;DHT22;9489;50.948;3.114;2023-11-19T05:12:23;12.00;99.90
18721;DHT22;9489;50.948;3.114;2023-11-19T05:14:48;11.90;99.90
18721;DHT22;9489;50.948;3.114;2023-11-19T05:17:19;11.90;99.90
18721;DHT22;9489;50.948;3.114;2023-11-19T05:19:45;11.80;99.90
18721;DHT22;9489;50.948;3.114;2023-11-19T05:22:11;11.80;99.90
18721;DHT22;9489;50.948;3.114;2023-11-19T05:24:36;11.70;99.90
18721;DHT22;9489;50.948;3.114;2023-11-19T05:27:02;11.60;99.90
18721;DHT22;9489;50.948;3.114;2023-11-19T05:29:28;11.60;99.90
18721;DHT22;9489;50.948;3.114;2023-11-19T05:31:54;11.50;99.90
18721;DHT22;9489;50.948;3.114;2023-11-19T05:34:21;11.50;99.90
18721;DHT22;9489;50.948;3.114;2023-11-19T05:36:47;11.50;99.90
18721;DHT22;9489;50.948;3.114;2023-11-19T05:39:13;11.50;99.90
18721;DHT22;9489;50.948;3.114;2023-11-19T05:41:38;11.50;99.90
18721;DHT22;9489;50.948;3.114;2023-11-19T05:44:04;11.50;99.90
18721;DHT22;9489;50.948;3.114;2023-11-19T05:46:30;11.50;99.90
18721;DHT22;9489;50.948;3.114;2023-11-19T05:48:55;11.50;99.90
18721;DHT22;9489;50.948;3.114;2023-11-19T05:51:21;11.50;99.90
18721;DHT22;9489;50.948;3.114;2023-11-19T05:53:46;11.50;99.90
18721;DHT22;9489;50.948;3.114;2023-11-19T05:56:12;11.50;99.90
18721;DHT22;9489;50.948;3.114;2023-11-19T05:58:38;11.50;99.90
18721;DHT22;9489;50.948;3.114;2023-11-19T06:01:05;11.50;99.90
18721;DHT22;9489;50.948;3.114;2023-11-19T06:03:32;11.50;99.90
18721;DHT22;9489;50.948;3.114;2023-11-19T06:05:58;11.50;99.90
18721;DHT22;9489;50.948;3.114;2023-11-19T06:08:24;11.50;99.90
18721;DHT22;9489;50.948;3.114;2023-11-19T06:10:52;11.40;99.90
18721;DHT22;9489;50.948;3.114;2023-11-19T06:13:18;11.50;99.90
18721;DHT22;9489;50.948;3.114;2023-11-19T06:15:44;11.50;99.90
18721;DHT22;9489;50.948;3.114;2023-11-19T06:18:10;11.50;99.90
18721;DHT22;9489;50.948;3.114;2023-11-19T06:20:37;11.50;99.90
18721;DHT22;9489;50.948;3.114;2023-11-19T06:23:02;11.50;99.90
18721;DHT22;9489;50.948;3.114;2023-11-19T06:25:28;11.60;99.90
18721;DHT22;9489;50.948;3.114;2023-11-19T06:27:54;11.60;99.90
18721;DHT22;9489;50.948;3.114;2023-11-19T06:30:19;11.60;99.90
18721;DHT22;9489;50.948;3.114;2023-11-19T06:32:46;11.60;99.90
18721;DHT22;9489;50.948;3.114;2023-11-19T06:35:12;11.70;99.90
18721;DHT22;9489;50.948;3.114;2023-11-19T06:37:39;11.70;99.90
18721;DHT22;9489;50.948;3.114;2023-11-19T06:40:06;11.70;99.90
18721;DHT22;9489;50.948;3.114;2023-11-19T06:42:33;11.60;99.90
18721;DHT22;9489;50.948;3.114;2023-11-19T06:44:58;11.60;99.90
18721;DHT22;9489;50.948;3.114;2023-11-19T06:47:27;11.50;99.90
18721;DHT22;9489;50.948;3.114;2023-11-19T06:49:54;11.50;99.90
18721;DHT22;9489;50.948;3.114;2023-11-19T06:52:20;11.40;99.90
18721;DHT22;9489;50.948;3.114;2023-11-19T06:54:46;11.40;99.90
18721;DHT22;9489;50.948;3.114;2023-11-19T06:57:12;11.40;99.90
18721;DHT22;9489;50.948;3.114;2023-11-19T06:59:38;11.30;99.90
18721;DHT22;9489;50.948;3.114;2023-11-19T07:02:03;11.30;99.90
18721;DHT22;9489;50.948;3.114;2023-11-19T07:04:30;11.30;99.90
18721;DHT22;9489;50.948;3.114;2023-11-19T07:06:56;11.30;99.90
18721;DHT22;9489;50.948;3.114;2023-11-19T07:09:22;11.30;99.90
18721;DHT22;9489;50.948;3.114;2023-11-19T07:11:49;11.30;99.90
18721;DHT22;9489;50.948;3.114;2023-11-19T07:14:17;11.40;99.90
18721;DHT22;9489;50.948;3.114;2023-11-19T07:16:44;11.50;99.90
18721;DHT22;9489;50.948;3.114;2023-11-19T07:19:10;11.60;99.90
18721;DHT22;9489;50.948;3.114;2023-11-19T07:21:36;11.60;99.90
18721;DHT22;9489;50.948;3.114;2023-11-19T07:24:05;11.70;99.90
18721;DHT22;9489;50.948;3.114;2023-11-19T07:26:31;11.70;99.90
18721;DHT22;9489;50.948;3.114;2023-11-19T07:28:57;11.80;99.90
18721;DHT22;9489;50.948;3.114;2023-11-19T07:31:24;11.80;99.90
18721;DHT22;9489;50.948;3.114;2023-11-19T07:33:49;11.80;99.90
18721;DHT22;9489;50.948;3.114;2023-11-19T07:36:15;11.90;99.90
18721;DHT22;9489;50.948;3.114;2023-11-19T07:38:41;11.90;99.90
18721;DHT22;9489;50.948;3.114;2023-11-19T07:41:08;11.90;99.90
18721;DHT22;9489;50.948;3.114;2023-11-19T07:43:44;11.90;99.90
18721;DHT22;9489;50.948;3.114;2023-11-19T07:46:13;11.90;99.90
18721;DHT22;9489;50.948;3.114;2023-11-19T07:48:40;11.90;99.90
18721;DHT22;9489;50.948;3.114;2023-11-19T07:51:05;11.90;99.90
18721;DHT22;9489;50.948;3.114;2023-11-19T07:53:31;11.90;99.90
18721;DHT22;9489;50.948;3.114;2023-11-19T07:55:58;11.90;99.90
18721;DHT22;9489;50.948;3.114;2023-11-19T07:58:25;11.90;99.90
18721;DHT22;9489;50.948;3.114;2023-11-19T08:00:51;12.00;99.90
18721;DHT22;9489;50.948;3.114;2023-11-19T08:03:17;12.00;99.90
18721;DHT22;9489;50.948;3.114;2023-11-19T08:05:44;12.10;99.90
18721;DHT22;9489;50.948;3.114;2023-11-19T08:08:11;12.20;99.90
18721;DHT22;9489;50.948;3.114;2023-11-19T08:10:37;12.30;99.90
18721;DHT22;9489;50.948;3.114;2023-11-19T08:13:03;12.40;99.90
18721;DHT22;9489;50.948;3.114;2023-11-19T08:15:28;12.50;99.90
18721;DHT22;9489;50.948;3.114;2023-11-19T08:17:54;12.50;99.90
18721;DHT22;9489;50.948;3.114;2023-11-19T08:20:19;12.40;99.90
18721;DHT22;9489;50.948;3.114;2023-11-19T08:22:45;12.40;99.90
18721;DHT22;9489;50.948;3.114;2023-11-19T08:25:11;12.40;99.90
18721;DHT22;9489;50.948;3.114;2023-11-19T08:27:36;12.70;99.90
18721;DHT22;9489;50.948;3.114;2023-11-19T08:30:02;13.00;99.90
18721;DHT22;9489;50.948;3.114;2023-11-19T08:32:28;13.40;99.90
18721;DHT22;9489;50.948;3.114;2023-11-19T08:34:54;13.70;99.90
18721;DHT22;9489;50.948;3.114;2023-11-19T08:37:20;14.10;99.90
18721;DHT22;9489;50.948;3.114;2023-11-19T08:39:48;14.10;99.90
18721;DHT22;9489;50.948;3.114;2023-11-19T08:42:13;14.00;99.90
18721;DHT22;9489;50.948;3.114;2023-11-19T08:44:39;13.80;99.90
18721;DHT22;9489;50.948;3.114;2023-11-19T08:47:06;13.60;99.90
18721;DHT22;9489;50.948;3.114;2023-11-19T08:49:31;13.50;99.90
18721;DHT22;9489;50.948;3.114;2023-11-19T08:51:57;13.40;99.90
18721;DHT22;9489;50.948;3.114;2023-11-19T08:54:22;13.30;99.90
18721;DHT22;9489;50.948;3.114;2023-11-19T08:56:48;13.30;99.90
18721;DHT22;9489;50.948;3.114;2023-11-19T08:59:14;13.40;99.90
18721;DHT22;9489;50.948;3.114;2023-11-19T09:01:40;13.60;99.90
18721;DHT22;9489;50.948;3.114;2023-11-19T09:04:06;13.70;99.90
18721;DHT22;9489;50.948;3.114;2023-11-19T09:06:32;13.80;99.90
18721;DHT22;9489;50.948;3.114;2023-11-19T09:08:58;14.10;99.90
18721;DHT22;9489;50.948;3.114;2023-11-19T09:11:27;14.40;99.90
18721;DHT22;9489;50.948;3.114;2023-11-19T09:13:53;14.30;99.90
18721;DHT22;9489;50.948;3.114;2023-11-19T09:16:19;14.10;99.90
18721;DHT22;9489;50.948;3.114;2023-11-19T09:18:45;14.00;99.90
18721;DHT22;9489;50.948;3.114;2023-11-19T09:21:11;13.90;99.90
18721;DHT22;9489;50.948;3.114;2023-11-19T09:23:37;13.70;99.90
18721;DHT22;9489;50.948;3.114;2023-11-19T09:26:13;13.50;99.90
18721;DHT22;9489;50.948;3.114;2023-11-19T09:28:39;13.40;99.90
18721;DHT22;9489;50.948;3.114;2023-11-19T09:31:17;13.30;99.90
18721;DHT22;9489;50.948;3.114;2023-11-19T09:33:43;13.20;99.90
18721;DHT22;9489;50.948;3.114;2023-11-19T09:36:10;13.10;99.90
18721;DHT22;9489;50.948;3.114;2023-11-19T09:38:39;13.10;99.90
18721;DHT22;9489;50.948;3.114;2023-11-19T09:41:06;13.00;99.90
18721;DHT22;9489;50.948;3.114;2023-11-19T09:43:35;13.00;99.90
18721;DHT22;9489;50.948;3.114;2023-11-19T09:46:05;13.00;99.90
18721;DHT22;9489;50.948;3.114;2023-11-19T09:48:36;13.00;99.90
18721;DHT22;9489;50.948;3.114;2023-11-19T09:51:09;12.90;99.90
18721;DHT22;9489;50.948;3.114;2023-11-19T09:53:36;12.80;99.90
18721;DHT22;9489;50.948;3.114;2023-11-19T09:56:03;12.90;99.90
18721;DHT22;9489;50.948;3.114;2023-11-19T09:58:29;13.00;99.90
18721;DHT22;9489;50.948;3.114;2023-11-19T10:00:57;13.20;99.90
18721;DHT22;9489;50.948;3.114;2023-11-19T10:03:25;13.40;99.90
18721;DHT22;9489;50.948;3.114;2023-11-19T10:05:53;13.50;99.90
18721;DHT22;9489;50.948;3.114;2023-11-19T10:08:20;13.50;99.90
18721;DHT22;9489;50.948;3.114;2023-11-19T10:10:45;13.60;99.90
18721;DHT22;9489;50.948;3.114;2023-11-19T10:13:12;13.50;99.90
18721;DHT22;9489;50.948;3.114;2023-11-19T10:15:40;13.80;99.90
18721;DHT22;9489;50.948;3.114;2023-11-19T10:18:06;14.00;99.90
18721;DHT22;9489;50.948;3.114;2023-11-19T10:20:36;14.00;99.90
18721;DHT22;9489;50.948;3.114;2023-11-19T10:23:02;14.20;99.90
18721;DHT22;9489;50.948;3.114;2023-11-19T10:25:29;14.40;99.90
18721;DHT22;9489;50.948;3.114;2023-11-19T10:27:56;14.70;99.90
18721;DHT22;9489;50.948;3.114;2023-11-19T10:30:23;15.40;99.90
18721;DHT22;9489;50.948;3.114;2023-11-19T10:33:05;16.00;99.90
18721;DHT22;9489;50.948;3.114;2023-11-19T10:38:16;16.10;99.90
18721;DHT22;9489;50.948;3.114;2023-11-19T10:40:42;15.70;99.90
18721;DHT22;9489;50.948;3.114;2023-11-19T10:43:08;15.40;99.90
18721;DHT22;9489;50.948;3.114;2023-11-19T10:45:38;15.50;99.90
18721;DHT22;9489;50.948;3.114;2023-11-19T10:48:05;15.40;99.90
18721;DHT22;9489;50.948;3.114;2023-11-19T10:50:37;15.30;99.90
18721;DHT22;9489;50.948;3.114;2023-11-19T10:53:03;15.20;99.90
18721;DHT22;9489;50.948;3.114;2023-11-19T10:55:34;15.10;99.90
18721;DHT22;9489;50.948;3.114;2023-11-19T10:58:08;14.80;99.90
18721;DHT22;9489;50.948;3.114;2023-11-19T11:00:57;14.60;99.90
18721;DHT22;9489;50.948;3.114;2023-11-19T11:03:26;14.50;99.90
18721;DHT22;9489;50.948;3.114;2023-11-19T11:05:56;14.40;99.90
18721;DHT22;9489;50.948;3.114;2023-11-19T11:08:22;14.30;99.90
18721;DHT22;9489;50.948;3.114;2023-11-19T11:10:54;14.20;99.90
18721;DHT22;9489;50.948;3.114;2023-11-19T11:13:22;14.10;99.90
18721;DHT22;9489;50.948;3.114;2023-11-19T11:15:48;14.10;99.90
18721;DHT22;9489;50.948;3.114;2023-11-19T11:18:14;14.00;99.90
18721;DHT22;9489;50.948;3.114;2023-11-19T11:20:41;13.90;99.90
18721;DHT22;9489;50.948;3.114;2023-11-19T11:29:09;14.10;99.90
18721;DHT22;9489;50.948;3.114;2023-11-19T11:34:26;15.30;99.90
18721;DHT22;9489;50.948;3.114;2023-11-19T11:39:34;16.30;99.90
18721;DHT22;9489;50.948;3.114;2023-11-19T11:45:08;17.60;99.90
18721;DHT22;9489;50.948;3.114;2023-11-19T11:50:18;17.40;1.00
18721;DHT22;9489;50.948;3.114;2023-11-19T11:55:52;16.90;99.90
18721;DHT22;9489;50.948;3.114;2023-11-19T11:58:28;16.50;99.90
18721;DHT22;9489;50.948;3.114;2023-11-19T12:00:57;16.20;99.90
18721;DHT22;9489;50.948;3.114;2023-11-19T12:03:23;16.10;99.90
18721;DHT22;9489;50.948;3.114;2023-11-19T12:05:49;15.60;99.90
18721;DHT22;9489;50.948;3.114;2023-11-19T12:08:18;15.30;99.90
18721;DHT22;9489;50.948;3.114;2023-11-19T12:10:50;14.80;99.90
18721;DHT22;9489;50.948;3.114;2023-11-19T12:13:17;14.50;99.90
18721;DHT22;9489;50.948;3.114;2023-11-19T12:18:32;14.40;99.90
18721;DHT22;9489;50.948;3.114;2023-11-19T12:21:01;14.50;99.90
18721;DHT22;9489;50.948;3.114;2023-11-19T12:23:31;14.40;99.90
18721;DHT22;9489;50.948;3.114;2023-11-19T12:25:57;14.40;99.90
18721;DHT22;9489;50.948;3.114;2023-11-19T12:28:23;14.50;99.90
18721;DHT22;9489;50.948;3.114;2023-11-19T12:30:53;14.50;99.90
18721;DHT22;9489;50.948;3.114;2023-11-19T12:33:19;14.40;99.90
18721;DHT22;9489;50.948;3.114;2023-11-19T12:35:47;14.40;99.90
18721;DHT22;9489;50.948;3.114;2023-11-19T12:38:20;14.40;99.90
18721;DHT22;9489;50.948;3.114;2023-11-19T12:41:04;14.50;99.90
18721;DHT22;9489;50.948;3.114;2023-11-19T12:43:30;14.50;99.90
18721;DHT22;9489;50.948;3.114;2023-11-19T12:45:56;14.40;99.90
18721;DHT22;9489;50.948;3.114;2023-11-19T12:48:22;14.40;99.90
18721;DHT22;9489;50.948;3.114;2023-11-19T12:50:58;14.40;99.90
18721;DHT22;9489;50.948;3.114;2023-11-19T12:53:26;14.30;99.90
18721;DHT22;9489;50.948;3.114;2023-11-19T12:55:52;14.20;99.90
18721;DHT22;9489;50.948;3.114;2023-11-19T12:58:35;14.30;99.90
18721;DHT22;9489;50.948;3.114;2023-11-19T13:01:05;14.20;99.90
18721;DHT22;9489;50.948;3.114;2023-11-19T13:03:35;14.20;99.90
18721;DHT22;9489;50.948;3.114;2023-11-19T13:06:06;14.10;99.90
18721;DHT22;9489;50.948;3.114;2023-11-19T13:08:43;14.10;99.90
18721;DHT22;9489;50.948;3.114;2023-11-19T13:11:14;14.00;99.90
18721;DHT22;9489;50.948;3.114;2023-11-19T13:14:02;14.00;99.90
18721;DHT22;9489;50.948;3.114;2023-11-19T13:16:36;13.90;99.90
18721;DHT22;9489;50.948;3.114;2023-11-19T13:19:02;13.90;99.90
18721;DHT22;9489;50.948;3.114;2023-11-19T13:21:28;13.80;99.90
18721;DHT22;9489;50.948;3.114;2023-11-19T13:23:55;13.80;99.90
18721;DHT22;9489;50.948;3.114;2023-11-19T13:26:21;13.70;99.90
18721;DHT22;9489;50.948;3.114;2023-11-19T13:28:47;13.50;99.90
18721;DHT22;9489;50.948;3.114;2023-11-19T13:31:13;13.30;99.90
18721;DHT22;9489;50.948;3.114;2023-11-19T13:33:39;13.20;99.90
18721;DHT22;9489;50.948;3.114;2023-11-19T13:36:05;13.20;99.90
18721;DHT22;9489;50.948;3.114;2023-11-19T13:38:36;13.20;99.90
18721;DHT22;9489;50.948;3.114;2023-11-19T13:41:02;13.20;99.90
18721;DHT22;9489;50.948;3.114;2023-11-19T13:43:28;13.20;99.90
18721;DHT22;9489;50.948;3.114;2023-11-19T13:45:55;13.30;99.90
18721;DHT22;9489;50.948;3.114;2023-11-19T13:48:21;13.40;99.90
18721;DHT22;9489;50.948;3.114;2023-11-19T13:50:46;13.50;99.90
18721;DHT22;9489;50.948;3.114;2023-11-19T13:53:12;13.60;99.90
18721;DHT22;9489;50.948;3.114;2023-11-19T13:55:38;13.60;99.90
18721;DHT22;9489;50.948;3.114;2023-11-19T13:58:03;13.50;99.90
18721;DHT22;9489;50.948;3.114;2023-11-19T14:00:29;13.50;99.90
18721;DHT22;9489;50.948;3.114;2023-11-19T14:02:54;13.50;99.90
18721;DHT22;9489;50.948;3.114;2023-11-19T14:05:20;13.50;99.90
18721;DHT22;9489;50.948;3.114;2023-11-19T14:07:46;13.50;99.90
18721;DHT22;9489;50.948;3.114;2023-11-19T14:10:17;13.50;99.90
18721;DHT22;9489;50.948;3.114;2023-11-19T14:12:42;13.60;99.90
18721;DHT22;9489;50.948;3.114;2023-11-19T14:15:09;13.60;99.90
18721;DHT22;9489;50.948;3.114;2023-11-19T14:17:35;13.50;99.90
18721;DHT22;9489;50.948;3.114;2023-11-19T14:20:02;13.50;99.90
18721;DHT22;9489;50.948;3.114;2023-11-19T14:22:30;13.40;99.90
18721;DHT22;9489;50.948;3.114;2023-11-19T14:24:56;13.40;99.90
18721;DHT22;9489;50.948;3.114;2023-11-19T14:27:21;13.40;99.90
18721;DHT22;9489;50.948;3.114;2023-11-19T14:29:48;13.30;99.90
18721;DHT22;9489;50.948;3.114;2023-11-19T14:32:13;13.30;99.90
18721;DHT22;9489;50.948;3.114;2023-11-19T14:34:39;13.30;99.90
18721;DHT22;9489;50.948;3.114;2023-11-19T14:37:04;13.30;99.90
18721;DHT22;9489;50.948;3.114;2023-11-19T14:39:30;13.20;99.90
18721;DHT22;9489;50.948;3.114;2023-11-19T14:41:58;13.20;99.90
18721;DHT22;9489;50.948;3.114;2023-11-19T14:44:27;13.20;99.90
18721;DHT22;9489;50.948;3.114;2023-11-19T14:46:54;13.20;99.90
18721;DHT22;9489;50.948;3.114;2023-11-19T14:49:20;13.20;99.90
18721;DHT22;9489;50.948;3.114;2023-11-19T14:51:45;13.20;99.90
18721;DHT22;9489;50.948;3.114;2023-11-19T14:54:11;13.20;99.90
18721;DHT22;9489;50.948;3.114;2023-11-19T14:56:36;13.10;99.90
18721;DHT22;9489;50.948;3.114;2023-11-19T14:59:04;13.10;99.90
18721;DHT22;9489;50.948;3.114;2023-11-19T15:01:29;13.00;99.90
18721;DHT22;9489;50.948;3.114;2023-11-19T15:03:56;12.90;99.90
18721;DHT22;9489;50.948;3.114;2023-11-19T15:06:25;12.90;99.90
18721;DHT22;9489;50.948;3.114;2023-11-19T15:08:53;12.90;99.90
18721;DHT22;9489;50.948;3.114;2023-11-19T15:11:20;12.90;99.90
18721;DHT22;9489;50.948;3.114;2023-11-19T15:13:46;12.90;99.90
18721;DHT22;9489;50.948;3.114;2023-11-19T15:16:12;12.90;99.90
18721;DHT22;9489;50.948;3.114;2023-11-19T15:18:40;13.00;99.90
18721;DHT22;9489;50.948;3.114;2023-11-19T15:21:06;13.00;99.90
18721;DHT22;9489;50.948;3.114;2023-11-19T15:23:33;13.00;99.90
18721;DHT22;9489;50.948;3.114;2023-11-19T15:25:59;13.00;99.90
18721;DHT22;9489;50.948;3.114;2023-11-19T15:28:24;13.10;99.90
18721;DHT22;9489;50.948;3.114;2023-11-19T15:30:50;13.00;99.90
18721;DHT22;9489;50.948;3.114;2023-11-19T15:33:16;13.00;99.90
18721;DHT22;9489;50.948;3.114;2023-11-19T15:35:41;13.00;99.90
18721;DHT22;9489;50.948;3.114;2023-11-19T15:38:07;13.00;99.90
18721;DHT22;9489;50.948;3.114;2023-11-19T15:40:35;13.00;99.90
18721;DHT22;9489;50.948;3.114;2023-11-19T15:43:03;13.00;99.90
18721;DHT22;9489;50.948;3.114;2023-11-19T15:45:29;13.00;99.90
18721;DHT22;9489;50.948;3.114;2023-11-19T15:47:55;13.00;99.90
18721;DHT22;9489;50.948;3.114;2023-11-19T15:50:20;13.00;99.90
18721;DHT22;9489;50.948;3.114;2023-11-19T15:52:46;13.00;99.90
18721;DHT22;9489;50.948;3.114;2023-11-19T15:55:13;13.00;99.90
18721;DHT22;9489;50.948;3.114;2023-11-19T15:57:39;13.00;99.90
18721;DHT22;9489;50.948;3.114;2023-11-19T16:00:05;12.90;99.90
18721;DHT22;9489;50.948;3.114;2023-11-19T16:02:31;12.90;99.90
18721;DHT22;9489;50.948;3.114;2023-11-19T16:04:57;12.80;99.90
18721;DHT22;9489;50.948;3.114;2023-11-19T16:07:22;12.80;99.90
18721;DHT22;9489;50.948;3.114;2023-11-19T16:09:48;12.80;99.90